Time;durP1;ratioP1;P1;durP2;ratioP2;P2;SDS_P1;SDS_P2;PMS_P1;PMS_P2;Temp;Humidity;BMP_temperature;BMP_pressure;BME280_temperature;BME280_humidity;BME280_pressure;Samples;Min_cycle;Max_cycle;Signal;HPM_P1;HPM_P2
2022/04/11 00:00:27;;;;;;;5.63;3.60;;;;;;;4.71;61.83;101868.75;5073587;28;20510;-83
2022/04/11 00:02:52;;;;;;;4.03;3.10;;;;;;;4.67;61.63;101861.78;5074812;28;20031;-83
2022/04/11 00:05:18;;;;;;;5.95;3.65;;;;;;;4.66;61.47;101861.75;5074023;28;20539;-83
2022/04/11 00:07:43;;;;;;;5.32;3.80;;;;;;;4.65;61.52;101855.72;5074165;28;20027;-83
2022/04/11 00:10:09;;;;;;;9.18;5.15;;;;;;;4.72;61.74;101849.94;5073828;28;20399;-83
2022/04/11 00:12:36;;;;;;;8.48;4.85;;;;;;;4.67;61.41;101854.06;5065562;28;20027;-83
2022/04/11 00:15:04;;;;;;;7.70;4.70;;;;;;;4.68;61.15;101850.66;5053612;28;20021;-83
2022/04/11 00:17:30;;;;;;;7.15;4.40;;;;;;;4.69;61.40;101848.94;5053926;28;20049;-83
2022/04/11 00:19:55;;;;;;;6.97;4.38;;;;;;;4.71;61.47;101849.88;5054287;28;20362;-83
2022/04/11 00:22:20;;;;;;;6.63;4.00;;;;;;;4.69;61.42;101851.53;5053765;28;20118;-83
2022/04/11 00:24:45;;;;;;;6.82;4.05;;;;;;;4.68;61.55;101857.50;5054248;28;20021;-83
2022/04/11 00:27:11;;;;;;;5.10;3.95;;;;;;;4.66;61.85;101849.75;5053994;28;20074;-83
2022/04/11 00:29:36;;;;;;;7.60;4.50;;;;;;;4.65;61.58;101848.00;5053110;28;20029;-83
2022/04/11 00:32:01;;;;;;;5.45;3.85;;;;;;;4.64;62.21;101841.13;5053892;28;20385;-83
2022/04/11 00:34:27;;;;;;;5.38;3.80;;;;;;;4.60;62.30;101836.75;5053497;28;20068;-83
2022/04/11 00:36:52;;;;;;;5.78;3.72;;;;;;;4.58;63.04;101830.69;5053712;28;20404;-83
2022/04/11 00:39:17;;;;;;;6.15;4.18;;;;;;;4.54;62.18;101826.31;5053887;28;20074;-83
2022/04/11 00:41:48;;;;;;;5.55;4.03;;;;;;;4.58;62.32;101830.69;5070437;28;20036;-83
2022/04/11 00:44:13;;;;;;;6.95;4.00;;;;;;;4.56;62.43;101822.94;5073705;28;20415;-83
2022/04/11 00:46:39;;;;;;;7.30;3.90;;;;;;;4.56;62.42;101827.22;5174702;22;20007;-83
2022/04/11 00:49:04;;;;;;;6.88;4.25;;;;;;;4.56;62.36;101824.66;5053248;28;20025;-83
2022/04/11 00:51:29;;;;;;;7.85;4.30;;;;;;;4.55;62.44;101823.78;5053384;28;20064;-83
2022/04/11 00:54:00;;;;;;;6.88;4.20;;;;;;;4.53;62.43;101810.00;5053631;28;20036;-83
2022/04/11 00:56:28;;;;;;;6.45;4.00;;;;;;;4.48;62.60;101806.44;5051902;22;20482;-82
2022/04/11 00:58:55;;;;;;;7.88;4.40;;;;;;;4.49;62.35;101808.19;5033547;28;20034;-83
2022/04/11 01:01:20;;;;;;;5.82;4.25;;;;;;;4.51;63.31;101814.25;5032696;28;20045;-83
2022/04/11 01:03:46;;;;;;;7.13;4.43;;;;;;;4.51;62.43;101813.34;5032683;28;20524;-83
2022/04/11 01:06:11;;;;;;;7.55;4.70;;;;;;;4.50;62.41;101809.06;5033478;28;20030;-83
2022/04/11 01:08:37;;;;;;;6.97;4.47;;;;;;;4.50;62.40;101809.94;5033089;28;20322;-83
2022/04/11 01:11:03;;;;;;;8.30;5.18;;;;;;;4.50;63.03;101814.22;5032436;28;20029;-83
2022/04/11 01:13:29;;;;;;;6.88;4.65;;;;;;;4.49;62.53;101808.19;5033416;28;20033;-83
2022/04/11 01:15:59;;;;;;;9.10;4.97;;;;;;;4.47;62.93;101803.03;5034353;28;20087;-83
2022/04/11 01:18:25;;;;;;;8.82;4.93;;;;;;;4.46;63.06;101798.72;5031897;28;20423;-83
2022/04/11 01:20:51;;;;;;;7.30;4.75;;;;;;;4.47;62.77;101803.03;5033320;28;20076;-83
2022/04/11 01:23:16;;;;;;;7.22;4.50;;;;;;;4.47;62.94;101800.44;5033466;28;20029;-83
2022/04/11 01:25:42;;;;;;;7.45;4.70;;;;;;;4.45;62.79;101794.41;5032340;28;20065;-83
2022/04/11 01:28:07;;;;;;;7.22;4.80;;;;;;;4.46;62.86;101796.13;5033507;28;20030;-83
2022/04/11 01:30:33;;;;;;;6.60;4.13;;;;;;;4.44;62.58;101796.94;5033643;28;20079;-83
2022/04/11 01:32:58;;;;;;;7.55;4.70;;;;;;;4.44;63.08;101799.50;5032668;28;20033;-83
2022/04/11 01:35:26;;;;;;;6.38;4.38;;;;;;;4.44;63.04;101802.06;5032797;28;20030;-83
2022/04/11 01:37:53;;;;;;;6.80;4.30;;;;;;;4.41;62.82;101796.84;5032527;28;20056;-83
2022/04/11 01:40:19;;;;;;;6.15;4.32;;;;;;;4.41;63.02;101800.28;5032914;28;20033;-83
2022/04/11 01:42:47;;;;;;;7.03;4.38;;;;;;;4.38;63.09;101796.75;5033144;28;20036;-83
2022/04/11 01:45:13;;;;;;;6.10;4.22;;;;;;;4.38;62.90;101800.22;5032110;28;20492;-83
2022/04/11 01:50:09;;;;;;;6.45;4.40;;;;;;;4.25;63.49;101782.75;4989549;28;20556;-83
2022/04/11 01:52:40;;;;;;;6.28;4.03;;;;;;;4.28;63.37;101798.22;4989567;28;20034;-83
2022/04/11 01:58:29;;;;;;;7.25;4.40;;;;;;;4.20;63.83;101789.44;4993303;28;20402;-83
2022/04/11 02:00:58;;;;;;;7.28;4.75;;;;;;;4.16;63.82;101794.53;4970406;28;20463;-83
2022/04/11 02:03:26;;;;;;;8.00;4.90;;;;;;;4.15;63.72;101789.31;4993256;28;20470;-83
2022/04/11 02:06:10;;;;;;;7.72;5.15;;;;;;;4.07;64.02;101776.28;4993112;28;20374;-83
2022/04/11 02:08:44;;;;;;;7.90;4.82;;;;;;;4.01;64.21;101771.84;4992947;28;20533;-83
2022/04/11 02:11:58;;;;;;;8.15;4.43;;;;;;;4.06;64.48;101795.06;4993548;28;20489;-83
2022/04/11 02:14:30;;;;;;;7.13;4.38;;;;;;;3.95;64.70;101781.97;4976522;28;20102;-83
2022/04/11 02:17:05;;;;;;;5.60;4.00;;;;;;;3.92;65.67;101778.44;4977920;28;20502;-83
2022/04/11 02:19:30;;;;;;;6.22;4.00;;;;;;;3.91;64.56;101781.84;4977491;28;20027;-83
2022/04/11 02:21:55;;;;;;;5.70;4.07;;;;;;;3.93;65.00;101785.31;4977133;28;20074;-83
2022/04/11 02:24:20;;;;;;;7.35;4.40;;;;;;;3.92;64.57;101791.28;4977235;28;20034;-83
2022/04/11 02:26:48;;;;;;;6.22;4.20;;;;;;;3.89;64.53;101784.34;4977905;28;20026;-83
2022/04/11 02:29:14;;;;;;;5.15;3.83;;;;;;;3.90;64.30;101790.38;4976991;28;20444;-83
2022/04/11 02:31:39;;;;;;;6.65;4.57;;;;;;;3.86;64.32;101792.84;4977510;28;20047;-83
2022/04/11 02:34:04;;;;;;;7.25;4.85;;;;;;;3.88;63.99;101798.03;4978056;28;20375;-84
2022/04/11 02:36:30;;;;;;;7.00;4.50;;;;;;;3.86;64.30;101797.97;4996790;28;20089;-83
2022/04/11 02:38:55;;;;;;;7.70;5.07;;;;;;;3.85;65.42;101796.25;4997234;28;20034;-83
2022/04/11 02:41:23;;;;;;;7.05;4.63;;;;;;;3.80;65.18;101791.78;4995889;28;20044;-83
2022/04/11 02:43:48;;;;;;;6.18;4.20;;;;;;;3.75;64.54;101794.25;4996657;28;20038;-83
2022/04/11 02:46:13;;;;;;;8.02;4.97;;;;;;;3.71;64.61;101793.28;4996720;28;20026;-83
2022/04/11 02:48:41;;;;;;;7.95;4.82;;;;;;;3.68;64.88;101792.34;4995245;28;20050;-83
2022/04/11 02:51:07;;;;;;;6.63;4.30;;;;;;;3.62;65.14;101794.72;4996565;28;20022;-84
2022/04/11 02:53:32;;;;;;;5.00;4.00;;;;;;;3.59;64.54;101786.94;4996459;28;20030;-83
2022/04/11 02:55:57;;;;;;;6.30;4.20;;;;;;;3.58;64.66;101795.47;4995540;28;20032;-84
2022/04/11 02:58:22;;;;;;;6.20;4.18;;;;;;;3.54;65.32;101787.69;4996334;28;20398;-84
2022/04/11 03:00:48;;;;;;;5.28;4.03;;;;;;;3.53;65.06;101796.19;4996565;28;20041;-83
2022/04/11 03:03:13;;;;;;;5.53;4.00;;;;;;;3.50;64.84;101785.84;4995441;28;20034;-83
2022/04/11 03:05:38;;;;;;;5.40;3.97;;;;;;;3.45;66.25;101787.41;4996370;28;20032;-83
2022/04/11 03:08:04;;;;;;;6.00;3.97;;;;;;;3.42;64.92;101776.19;4996588;28;20026;-83
2022/04/11 03:10:29;;;;;;;6.43;4.30;;;;;;;3.36;66.01;101782.00;4995080;28;20030;-84
2022/04/11 03:12:54;;;;;;;5.72;3.92;;;;;;;3.32;65.28;101785.31;4996437;28;20211;-83
2022/04/11 03:15:20;;;;;;;6.25;3.92;;;;;;;3.27;66.05;101777.47;4995805;28;20379;-83
2022/04/11 03:17:45;;;;;;;5.57;4.07;;;;;;;3.22;65.70;101774.78;4995489;28;20034;-83
2022/04/11 03:20:10;;;;;;;6.25;4.28;;;;;;;3.20;65.42;101778.97;4996081;28;20367;-83
2022/04/11 03:22:36;;;;;;;6.28;4.40;;;;;;;3.19;65.70;101779.81;4995817;28;20062;-83
2022/04/11 03:25:01;;;;;;;6.65;4.30;;;;;;;3.19;65.46;101781.50;4994585;28;20022;-83
2022/04/11 03:27:26;;;;;;;6.15;4.32;;;;;;;3.17;65.50;101773.75;4995646;28;20105;-83
2022/04/11 03:29:51;;;;;;;6.63;4.35;;;;;;;3.14;65.41;101776.25;4995996;28;20434;-83
2022/04/11 03:32:17;;;;;;;6.93;4.32;;;;;;;3.11;65.50;101780.38;5070106;22;20048;-83
2022/04/11 03:34:42;;;;;;;6.70;4.65;;;;;;;3.09;65.30;101778.66;5015416;28;20034;-83
2022/04/11 03:37:07;;;;;;;7.45;4.63;;;;;;;3.05;65.47;101778.50;5014946;28;20065;-83
2022/04/11 03:39:32;;;;;;;7.45;4.90;;;;;;;3.01;65.69;101779.25;5015171;28;20029;-83
2022/04/11 03:42:00;;;;;;;7.22;4.85;;;;;;;2.97;65.89;101785.09;5017918;28;20401;-83
2022/04/11 03:44:26;;;;;;;7.93;4.50;;;;;;;2.91;65.75;101780.66;5025826;28;20493;-83
2022/04/11 03:46:54;;;;;;;7.20;4.50;;;;;;;2.83;66.29;101780.41;5015687;28;20022;-83
2022/04/11 03:49:19;;;;;;;7.45;4.65;;;;;;;2.80;65.97;101784.56;5015083;28;20382;-81
2022/04/11 03:51:44;;;;;;;7.63;5.13;;;;;;;2.81;66.17;101778.63;5014593;28;20126;-81
2022/04/11 03:54:10;;;;;;;7.90;4.88;;;;;;;2.78;66.45;101776.84;5015939;28;20045;-83
2022/04/11 03:56:35;;;;;;;6.88;4.65;;;;;;;2.74;66.81;101775.88;5014768;28;20490;-83
2022/04/11 04:01:25;;;;;;;8.13;5.00;;;;;;;2.70;66.66;101784.28;5072775;22;20058;-84
2022/04/11 04:03:51;;;;;;;7.10;4.47;;;;;;;2.69;66.51;101779.09;5014617;28;20288;-83
2022/04/11 04:06:16;;;;;;;6.95;4.53;;;;;;;2.66;66.68;101781.56;5013739;28;20077;-82
2022/04/11 04:08:47;;;;;;;7.32;4.20;;;;;;;2.62;66.67;101783.16;5014544;28;20474;-84
2022/04/11 04:11:13;;;;;;;7.07;4.55;;;;;;;2.61;66.44;101784.84;5074288;22;20061;-87
2022/04/11 04:16:13;;;;;;;6.22;4.30;;;;;;;2.54;66.49;101769.19;6248335;22;20015;-84
2022/04/11 04:18:38;;;;;;;6.32;4.68;;;;;;;2.50;66.67;101765.66;5091079;22;20046;-82
2022/04/11 04:21:04;;;;;;;6.95;4.40;;;;;;;2.52;68.53;101765.75;5033075;28;20375;-82
2022/04/11 04:26:15;;;;;;;7.63;4.32;;;;;;;2.43;67.06;101764.59;4992478;28;20039;-82
2022/04/11 04:29:16;;;;;;;7.40;4.63;;;;;;;2.47;67.61;101763.03;5026289;28;20041;-82
2022/04/11 04:31:42;;;;;;;7.55;4.80;;;;;;;2.42;67.52;101762.84;5512688;22;20110;-82
2022/04/11 04:34:13;;;;;;;7.00;4.80;;;;;;;2.42;67.15;101762.00;5053201;28;20116;-82
2022/04/11 04:36:38;;;;;;;7.53;4.65;;;;;;;2.41;67.22;101762.81;5053891;28;20031;-82
2022/04/11 04:39:09;;;;;;;8.35;5.13;;;;;;;2.43;66.95;101763.75;5053803;28;20025;-83
2022/04/11 04:41:35;;;;;;;8.10;4.97;;;;;;;2.41;66.94;101753.44;5053010;28;20114;-82
2022/04/11 04:44:00;;;;;;;6.78;4.65;;;;;;;2.42;66.93;101759.44;5054084;28;20029;-82
2022/04/11 04:46:32;;;;;;;9.32;5.20;;;;;;;2.33;66.79;101747.19;5067783;22;20028;-82
2022/04/11 04:48:58;;;;;;;8.35;5.20;;;;;;;2.39;67.03;101756.75;5033367;28;20025;-82
2022/04/11 04:51:23;;;;;;;6.82;4.85;;;;;;;2.36;67.43;101757.53;5033435;28;20373;-82
2022/04/11 04:56:24;;;;;;;8.18;4.80;;;;;;;2.36;66.79;101760.09;5134301;22;20054;-82
2022/04/11 04:58:50;;;;;;;8.93;5.30;;;;;;;2.35;67.35;101760.06;5033811;28;20037;-82
2022/04/11 05:03:51;;;;;;;7.90;5.07;;;;;;;2.35;67.29;101754.94;5291666;22;20054;-82
2022/04/11 05:06:16;;;;;;;8.77;5.20;;;;;;;2.31;67.40;101757.38;5013881;28;20026;-82
2022/04/11 05:08:44;;;;;;;7.95;5.20;;;;;;;2.28;67.20;101752.16;5013505;28;20048;-82
2022/04/11 05:11:11;;;;;;;8.40;5.00;;;;;;;2.25;67.35;101749.47;5012996;28;20478;-83
2022/04/11 05:16:12;;;;;;;10.05;5.25;;;;;;;2.27;67.72;101742.72;6185697;22;20007;-86
2022/04/11 05:18:37;;;;;;;9.38;5.47;;;;;;;2.26;67.57;101752.94;5032278;28;20052;-85
2022/04/11 05:21:02;;;;;;;9.55;5.40;;;;;;;2.25;67.88;101746.06;5033483;28;20033;-83
2022/04/11 05:23:28;;;;;;;10.07;5.05;;;;;;;2.25;68.05;101749.47;5031131;28;20378;-84
2022/04/11 05:25:55;;;;;;;7.85;5.10;;;;;;;2.28;67.91;101749.59;5032940;28;20029;-84
2022/04/11 05:28:20;;;;;;;;;;;;;;;2.32;68.09;101745.44;5033361;28;20473;-84
2022/04/11 05:30:45;;;;;;;9.87;5.60;;;;;;;2.36;67.69;101742.16;5032377;28;20015;-84
2022/04/11 05:33:10;;;;;;;9.02;5.47;;;;;;;2.40;68.35;101745.69;5033332;28;20025;-84
2022/04/11 05:35:36;;;;;;;10.32;5.63;;;;;;;2.44;67.50;101740.72;5032839;28;20025;-84
2022/04/11 05:38:04;;;;;;;8.88;5.13;;;;;;;2.47;67.64;101750.22;5032354;28;20030;-85
2022/04/11 05:46:26;;;;;;;7.35;4.70;;;;;;;2.58;68.12;101750.56;5053051;28;20515;-85
2022/04/11 05:49:01;;;;;;;8.68;4.60;;;;;;;2.58;68.04;101737.72;5052210;28;20025;-84
2022/04/11 05:54:53;;;;;;;6.47;4.38;;;;;;;2.70;67.89;101742.41;5052866;28;20056;-86
2022/04/11 05:57:18;;;;;;;8.07;4.78;;;;;;;2.77;67.69;101745.19;5052393;28;20027;-86
2022/04/11 05:59:43;;;;;;;7.85;4.82;;;;;;;2.83;67.04;101743.66;5051889;28;20028;-85
2022/04/11 06:05:30;;;;;;;10.32;6.00;;;;;;;2.96;67.95;101738.06;5051852;28;20031;-85
2022/04/11 06:08:10;;;;;;;10.63;5.68;;;;;;;3.03;69.53;101731.44;5052623;28;20096;-84
2022/04/11 06:13:57;;;;;;;9.75;5.40;;;;;;;3.22;67.30;101738.84;5051814;28;20496;-85
2022/04/11 06:23:10;;;;;;;10.05;5.72;;;;;;;3.52;67.13;101743.13;5052159;28;20037;-84
2022/04/11 06:25:35;;;;;;;10.38;5.68;;;;;;;3.59;68.42;101733.03;5052097;28;20480;-87
2022/04/11 06:28:00;;;;;;;8.75;5.25;;;;;;;3.71;67.27;101738.53;5051133;28;20060;-83
2022/04/11 06:30:26;;;;;;;9.00;5.82;;;;;;;3.85;67.04;101747.44;5052045;28;20028;-83
2022/04/11 06:32:51;;;;;;;8.30;5.18;;;;;;;3.93;67.62;101744.22;5052307;28;20672;-83
2022/04/11 06:35:16;;;;;;;8.40;5.07;;;;;;;4.02;67.97;101737.63;5051373;28;20025;-84
2022/04/11 06:37:41;;;;;;;6.95;4.75;;;;;;;4.14;68.08;101737.09;5051075;28;20033;-82
2022/04/11 06:40:07;;;;;;;9.38;5.72;;;;;;;4.46;65.96;101743.84;5052014;28;20043;-83
2022/04/11 06:42:33;;;;;;;13.40;7.70;;;;;;;4.35;67.19;101742.69;5050828;28;20047;-82
2022/04/11 06:44:58;;;;;;;11.93;7.40;;;;;;;4.43;66.27;101742.06;5052288;28;20115;-83
2022/04/11 06:47:24;;;;;;;12.95;7.07;;;;;;;4.50;67.48;101735.38;5050721;28;20083;-82
2022/04/11 06:49:52;;;;;;;10.98;6.60;;;;;;;4.61;66.83;101746.78;5052446;28;20028;-83
2022/04/11 06:52:18;;;;;;;9.55;6.20;;;;;;;4.73;66.89;101756.47;5051951;28;20484;-85
2022/04/11 06:57:18;;;;;;;10.27;5.82;;;;;;;4.93;67.10;101756.94;5290055;22;20058;-85
2022/04/11 07:13:20;;;;;;;8.77;5.55;;;;;;;11.38;56.12;101738.81;5016029;28;20083;-83
2022/04/11 07:19:07;;;;;;;10.15;5.05;;;;;;;13.89;46.42;101726.97;5015778;28;20131;-85
2022/04/11 07:21:39;;;;;;;9.53;5.10;;;;;;;14.09;48.65;101723.19;5014973;28;20058;-85
2022/04/11 07:30:51;;;;;;;9.45;6.05;;;;;;;10.93;51.79;101726.00;5015182;28;20046;-85
2022/04/11 07:33:17;;;;;;;9.87;5.77;;;;;;;10.18;51.86;101725.19;5015594;28;20036;-82
2022/04/11 07:35:43;;;;;;;8.77;5.40;;;;;;;9.74;54.83;101730.31;5015619;28;20401;-83
2022/04/11 07:38:08;;;;;;;9.90;5.40;;;;;;;9.33;56.11;101715.50;5013848;28;20033;-82
2022/04/11 07:40:33;;;;;;;7.80;5.00;;;;;;;9.04;55.33;101726.59;5014837;28;20029;-85
2022/04/11 07:42:58;;;;;;;6.75;4.22;;;;;;;8.87;57.25;101733.41;5015311;28;20022;-85
2022/04/11 07:45:24;;;;;;;10.00;5.83;;;;;;;8.72;56.72;101726.41;5014244;28;20434;-83
2022/04/11 07:47:49;;;;;;;11.10;5.60;;;;;;;8.57;56.77;101725.44;5014848;28;20037;-83
2022/04/11 07:50:15;;;;;;;10.10;5.57;;;;;;;8.51;57.47;101720.19;5015481;28;20045;-83
2022/04/11 07:52:43;;;;;;;10.18;5.50;;;;;;;8.50;57.77;101719.34;5014545;28;20061;-83
2022/04/11 07:55:11;;;;;;;8.57;5.45;;;;;;;8.53;57.46;101712.47;5015066;28;20108;-82
2022/04/11 07:57:37;;;;;;;8.32;5.30;;;;;;;8.64;58.00;101722.03;5013908;28;20050;-82
2022/04/11 08:00:06;;;;;;;10.47;5.30;;;;;;;8.58;57.56;101716.81;5014907;28;20033;-82
2022/04/11 08:02:32;;;;;;;8.95;5.00;;;;;;;8.65;57.53;101712.56;5014450;28;20072;-83
2022/04/11 08:05:05;;;;;;;7.73;4.80;;;;;;;8.74;57.94;101709.13;5160698;22;20085;-83
2022/04/11 08:07:32;;;;;;;8.95;5.35;;;;;;;8.82;57.06;101707.50;5014419;28;20029;-83
2022/04/11 08:09:58;;;;;;;11.20;5.50;;;;;;;8.98;57.14;101705.84;5286792;22;20010;-82
2022/04/11 08:12:23;;;;;;;11.97;5.83;;;;;;;8.99;56.99;101702.41;5032776;28;20124;-83
2022/04/11 08:14:49;;;;;;;9.10;4.95;;;;;;;9.06;57.04;101695.53;5034417;28;20106;-83
2022/04/11 08:17:17;;;;;;;9.37;5.07;;;;;;;9.17;55.13;101690.38;5034463;28;20045;-83
2022/04/11 08:19:42;;;;;;;9.02;5.00;;;;;;;9.23;56.40;101688.69;5033664;28;20057;-83
2022/04/11 08:22:07;;;;;;;9.17;4.77;;;;;;;9.35;55.90;101681.81;5034403;28;20124;-83
2022/04/11 08:24:32;;;;;;;9.00;5.07;;;;;;;9.40;56.05;101686.16;5033723;28;20048;-83
2022/04/11 08:26:58;;;;;;;8.03;5.30;;;;;;;9.50;55.12;101684.47;5033594;28;20063;-83
2022/04/11 08:29:25;;;;;;;9.10;5.20;;;;;;;9.60;54.81;101684.50;5034260;28;20032;-83
2022/04/11 08:31:50;;;;;;;10.65;5.72;;;;;;;9.68;54.79;101682.78;5034309;28;20022;-83
2022/04/11 08:34:15;;;;;;;9.13;5.20;;;;;;;9.67;54.34;101684.50;5033621;28;20489;-84
2022/04/11 08:36:40;;;;;;;7.67;4.33;;;;;;;9.78;54.95;101684.50;5033816;28;20021;-83
2022/04/11 08:39:06;;;;;;;8.98;4.35;;;;;;;9.87;54.38;101673.28;5033867;28;20358;-84
2022/04/11 08:41:33;;;;;;;7.33;4.33;;;;;;;9.96;52.21;101678.47;5049731;22;20049;-84
2022/04/11 08:44:01;;;;;;;7.47;4.28;;;;;;;10.07;52.50;101675.91;5053403;28;20029;-84
2022/04/11 08:46:29;;;;;;;8.38;4.53;;;;;;;10.30;52.60;101680.22;5053571;28;20017;-84
2022/04/11 08:48:54;;;;;;;7.85;3.90;;;;;;;10.31;53.08;101679.34;5051770;28;20043;-84
2022/04/11 08:51:19;;;;;;;4.57;3.30;;;;;;;10.47;51.95;101672.47;5053247;28;20065;-83
2022/04/11 08:53:45;;;;;;;5.63;3.50;;;;;;;10.62;53.16;101679.34;5053511;28;20025;-87
2022/04/11 08:56:13;;;;;;;5.97;3.73;;;;;;;10.79;52.37;101669.78;5052958;28;20033;-87
2022/04/11 08:58:39;;;;;;;6.65;3.55;;;;;;;10.91;52.90;101673.19;5053398;28;20021;-88
2022/04/11 09:01:04;;;;;;;5.30;3.40;;;;;;;11.03;50.31;101664.50;5051573;28;20044;-81
2022/04/11 09:03:29;;;;;;;9.63;4.40;;;;;;;11.08;51.01;101662.75;5052958;28;20028;-80
2022/04/11 09:06:13;;;;;;;11.20;4.73;;;;;;;11.08;46.96;101670.53;5053516;28;20027;-83
2022/04/11 09:08:53;;;;;;;8.52;4.50;;;;;;;11.11;46.99;101678.31;5034584;28;20021;-85
2022/04/11 09:11:32;;;;;;;10.45;4.85;;;;;;;11.21;49.75;101680.00;5045271;28;20052;-84
2022/04/11 09:14:00;;;;;;;5.43;3.88;;;;;;;11.33;48.93;101671.28;5053285;28;20052;-84
2022/04/11 09:16:26;;;;;;;8.00;3.78;;;;;;;11.49;49.80;101674.66;5052128;28;20419;-84
2022/04/11 09:18:53;;;;;;;7.63;4.13;;;;;;;11.65;49.83;101662.41;5040757;28;20033;-84
2022/04/11 09:21:23;;;;;;;5.95;3.50;;;;;;;11.78;48.88;101670.16;5032234;28;20280;-84
2022/04/11 09:23:49;;;;;;;6.28;3.50;;;;;;;11.93;49.77;101656.19;5031100;28;20057;-84
2022/04/11 09:26:24;;;;;;;7.05;3.67;;;;;;;12.14;47.95;101652.56;5033214;28;20378;-83
2022/04/11 09:29:03;;;;;;;7.05;3.67;;;;;;;12.17;48.97;101648.19;5033181;28;20030;-84
2022/04/11 09:31:29;;;;;;;5.05;3.30;;;;;;;12.41;48.77;101646.22;5032600;28;20037;-84
2022/04/11 09:33:56;;;;;;;5.90;3.80;;;;;;;12.45;47.79;101636.63;5033071;28;20445;-84
2022/04/11 09:36:21;;;;;;;8.48;3.83;;;;;;;12.53;44.45;101632.22;5045280;28;20053;-84
2022/04/11 09:39:00;;;;;;;6.47;3.60;;;;;;;12.58;43.83;101637.38;5053044;28;20114;-84
2022/04/11 09:41:29;;;;;;;6.38;3.60;;;;;;;12.73;45.77;101628.53;5052485;28;20041;-83
2022/04/11 09:43:56;;;;;;;8.25;3.65;;;;;;;12.77;46.10;101631.09;5052070;28;20059;-84
2022/04/11 09:46:25;;;;;;;5.65;3.30;;;;;;;12.82;47.22;101621.47;5052712;28;20483;-84
2022/04/11 09:48:52;;;;;;;7.40;3.40;;;;;;;13.03;43.21;101618.59;5052969;28;20029;-85
2022/04/11 09:51:18;;;;;;;;;;;;;;;13.07;44.89;101620.28;5052145;28;20750;-84
2022/04/11 09:53:44;;;;;;;6.10;3.23;;;;;;;13.19;45.13;101617.53;5053038;28;19920;-83
2022/04/11 09:56:10;;;;;;;8.60;3.80;;;;;;;13.32;44.12;101618.22;5052513;28;20362;-84
2022/04/11 09:58:37;;;;;;;6.55;3.80;;;;;;;13.41;40.65;101609.44;5051891;28;20267;-85
2022/04/11 10:01:04;;;;;;;5.68;3.30;;;;;;;13.35;39.28;101615.56;5051687;28;20033;-85
2022/04/11 10:03:30;;;;;;;6.43;3.80;;;;;;;13.42;41.88;101614.63;5052334;28;20115;-84
2022/04/11 10:05:57;;;;;;;6.47;3.27;;;;;;;13.44;41.05;101594.59;5038422;28;20033;-84
2022/04/11 10:08:26;;;;;;;5.13;3.10;;;;;;;13.49;42.77;101610.16;5052531;28;20044;-84
2022/04/11 10:10:53;;;;;;;7.85;3.40;;;;;;;13.59;40.92;101613.50;5052515;28;20481;-84
2022/04/11 10:13:18;;;;;;;;;;;;;;;13.69;40.79;101606.38;5052090;28;20159;-83
2022/04/11 10:15:51;;;;;;;7.03;3.40;;;;;;;13.66;41.08;101607.31;5052675;28;19912;-84
2022/04/11 10:18:25;;;;;;;6.93;3.70;;;;;;;13.66;40.60;101607.31;5051195;28;20048;-83
2022/04/11 10:23:39;;;;;;;7.85;3.42;;;;;;;13.72;41.92;101602.00;5178161;22;20057;-84
2022/04/11 10:26:16;;;;;;;7.20;3.65;;;;;;;13.84;42.07;101597.47;5011920;28;20175;-84
2022/04/11 10:28:46;;;;;;;;;;;;;;;13.93;41.17;101597.31;5013280;28;20109;-83
2022/04/11 10:31:18;;;;;;;7.60;3.40;;;;;;;13.99;40.40;101591.97;5012194;28;19936;-84
2022/04/11 10:33:51;;;;;;;6.57;3.50;;;;;;;14.07;41.68;101584.00;5012293;28;20109;-84
2022/04/11 10:56:59;;;;;;;6.57;3.28;;;;;;;14.77;38.67;101562.66;6089551;22;20354;-83
2022/04/11 10:59:28;;;;;;;6.80;3.40;;;;;;;14.75;38.34;101550.53;5017100;28;20080;-84
2022/04/11 11:01:58;;;;;;;6.10;3.05;;;;;;;14.75;37.57;101558.34;5015234;28;20113;-84
2022/04/11 11:04:27;;;;;;;6.57;3.20;;;;;;;14.67;38.09;101555.91;5015535;28;20046;-82
2022/04/11 11:07:22;;;;;;;6.13;2.80;;;;;;;14.62;37.14;101552.47;5016033;28;20021;-84
2022/04/11 11:09:54;;;;;;;5.60;3.08;;;;;;;14.60;36.47;101541.19;5015328;28;20558;-84
2022/04/11 11:12:20;;;;;;;6.32;3.10;;;;;;;14.65;35.98;101541.97;5015791;28;20339;-82
2022/04/11 11:14:45;;;;;;;5.37;2.87;;;;;;;14.79;36.92;101537.34;5015229;28;20033;-84
2022/04/11 11:17:11;;;;;;;5.50;3.30;;;;;;;14.86;36.99;101526.75;5016209;28;20022;-84
2022/04/11 11:20:07;;;;;;;4.63;3.10;;;;;;;14.93;37.46;101531.81;5015247;28;20033;-83
2022/04/11 11:22:54;;;;;;;7.47;3.08;;;;;;;15.07;37.53;101522.81;5014822;28;20030;-83
2022/04/11 11:25:19;;;;;;;7.07;3.17;;;;;;;15.18;36.26;101519.91;5016534;28;20402;-83
2022/04/11 11:27:45;;;;;;;4.77;2.90;;;;;;;15.13;35.49;101512.19;5030592;28;20037;-83
2022/04/11 11:30:12;;;;;;;6.50;3.42;;;;;;;15.17;35.23;101507.75;5034344;28;20053;-83
2022/04/11 11:32:40;;;;;;;5.13;3.13;;;;;;;15.28;35.22;101493.53;5032556;28;20033;-82
2022/04/11 11:35:09;;;;;;;6.32;3.08;;;;;;;15.26;35.88;101497.94;5035511;28;20474;-82
2022/04/11 11:37:35;;;;;;;6.75;3.38;;;;;;;15.34;35.39;101497.75;5032741;28;20045;-83
2022/04/11 11:40:03;;;;;;;6.73;3.23;;;;;;;15.41;35.17;101488.84;5035336;28;20022;-84
2022/04/11 11:42:35;;;;;;;7.25;3.20;;;;;;;15.46;35.62;101485.25;5034872;28;20044;-85
2022/04/11 11:45:01;;;;;;;6.78;3.47;;;;;;;15.53;35.30;101473.72;5034623;28;20068;-84
2022/04/11 11:47:28;;;;;;;5.65;3.15;;;;;;;15.64;35.23;101469.06;5034208;28;20502;-84
2022/04/11 11:50:00;;;;;;;6.10;3.33;;;;;;;15.66;35.88;101463.78;5034207;28;20072;-84
2022/04/11 11:52:26;;;;;;;5.50;3.10;;;;;;;15.85;35.92;101470.28;5034805;28;20116;-84
2022/04/11 11:54:52;;;;;;;6.57;3.53;;;;;;;15.85;35.60;101467.69;5033101;28;20061;-84
2022/04/11 11:57:24;;;;;;;8.93;4.10;;;;;;;15.72;33.99;101458.41;5033806;28;20057;-85
2022/04/11 11:59:54;;;;;;;6.65;3.80;;;;;;;15.66;34.82;101455.94;5034803;28;20509;-85
2022/04/11 12:05:21;;;;;;;5.35;3.70;;;;;;;15.84;35.73;101447.63;4995161;28;20037;-83
2022/04/11 12:07:49;;;;;;;8.93;4.85;;;;;;;15.26;33.15;101442.13;4995241;28;20503;-84
2022/04/11 12:10:18;;;;;;;7.50;4.40;;;;;;;15.43;35.75;101446.94;4994925;28;20378;-84
2022/04/11 12:12:47;;;;;;;8.57;4.70;;;;;;;15.54;36.74;101447.50;4994530;28;20360;-83
2022/04/11 12:15:13;;;;;;;7.05;4.40;;;;;;;15.77;35.74;101427.72;4995232;28;20471;-82
2022/04/11 12:17:49;;;;;;;;;;;;;;;15.66;35.64;101440.22;4995275;28;20097;-82
2022/04/11 12:20:21;;;;;;;9.68;5.20;;;;;;;15.55;35.22;101427.47;4995139;28;19914;-84
2022/04/11 12:23:03;;;;;;;10.18;5.05;;;;;;;15.61;36.00;101422.06;5004543;28;20034;-83
2022/04/11 12:25:34;;;;;;;7.75;4.80;;;;;;;15.77;36.13;101432.94;5014069;28;20025;-83
2022/04/11 12:28:18;;;;;;;8.63;4.80;;;;;;;15.92;34.95;101425.59;5015301;28;20147;-83
2022/04/11 12:30:46;;;;;;;9.75;4.78;;;;;;;15.95;35.60;101423.75;5014609;28;20022;-83
2022/04/11 12:33:29;;;;;;;9.82;4.75;;;;;;;16.03;35.80;101421.81;5013915;28;20026;-83
2022/04/11 12:36:27;;;;;;;7.25;4.60;;;;;;;16.18;36.73;101423.09;5014642;28;20113;-84
2022/04/11 12:38:53;;;;;;;12.38;5.38;;;;;;;16.30;34.83;101421.88;4998964;28;20034;-84
2022/04/11 12:41:36;;;;;;;6.95;4.43;;;;;;;16.31;34.90;101417.50;5013614;28;20461;-83
2022/04/11 12:44:21;;;;;;;9.15;4.28;;;;;;;16.44;35.66;101418.81;5014620;28;20030;-84
2022/04/11 12:46:55;;;;;;;7.75;4.80;;;;;;;16.57;35.17;101419.31;5013834;28;20025;-86
2022/04/11 12:49:22;;;;;;;10.45;5.85;;;;;;;16.62;33.21;101419.16;5013804;28;20030;-84
2022/04/11 12:51:58;;;;;;;10.45;5.68;;;;;;;16.62;35.69;101411.31;5030635;28;20025;-87
2022/04/11 12:54:23;;;;;;;12.13;5.50;;;;;;;16.70;35.50;101417.16;5032949;28;20036;-84
2022/04/11 12:56:51;;;;;;;9.70;5.20;;;;;;;16.66;33.95;101405.91;5033325;28;20017;-84
2022/04/11 12:59:37;;;;;;;9.25;5.32;;;;;;;16.70;35.47;101411.91;5033042;28;20017;-85
2022/04/11 13:02:11;;;;;;;8.63;5.13;;;;;;;16.83;33.32;101410.63;5032898;28;20037;-85
2022/04/11 13:04:40;;;;;;;12.00;5.80;;;;;;;16.70;33.53;101413.69;5033320;28;20025;-84
2022/04/11 13:07:06;;;;;;;8.23;4.80;;;;;;;16.65;33.99;101412.06;5032847;28;20437;-85
2022/04/11 13:09:32;;;;;;;12.05;5.35;;;;;;;16.76;34.01;101413.47;5032722;28;20029;-83
2022/04/11 13:11:57;;;;;;;11.05;5.15;;;;;;;16.58;31.43;101414.91;5033623;28;20497;-86